Time;durP1;ratioP1;P1;durP2;ratioP2;P2;SDS_P1;SDS_P2;PMS_P1;PMS_P2;Temp;Humidity;BMP_temperature;BMP_pressure;BME280_temperature;BME280_humidity;BME280_pressure;Samples;Min_cycle;Max_cycle;Signal;HPM_P1;HPM_P2
2021/05/18 00:00:46;;;;;;;2.20;0.50;;;11.50;99.70;;;;;;5093705;28;20532;-80
2021/05/18 00:03:14;;;;;;;0.90;0.40;;;11.50;99.90;;;;;;5083171;28;20123;-80
2021/05/18 00:05:44;;;;;;;1.73;0.60;;;11.50;99.90;;;;;;5086587;28;20062;-80
2021/05/18 00:08:13;;;;;;;1.70;0.50;;;11.60;99.90;;;;;;5096486;28;20067;-80
2021/05/18 00:13:30;;;;;;;1.85;0.60;;;11.60;99.90;;;;;;5086072;28;20125;-81
2021/05/18 00:15:59;;;;;;;2.47;0.43;;;11.60;99.90;;;;;;5089239;28;20062;-81
2021/05/18 00:18:27;;;;;;;1.75;0.60;;;11.60;99.90;;;;;;5081280;28;20169;-81
2021/05/18 00:20:54;;;;;;;1.80;0.43;;;11.60;99.90;;;;;;5076908;28;20130;-81
2021/05/18 00:23:22;;;;;;;1.63;0.60;;;11.60;99.90;;;;;;5084664;28;20519;-81
2021/05/18 00:25:49;;;;;;;1.67;0.50;;;11.60;99.90;;;;;;5081904;28;20123;-81
2021/05/18 00:28:17;;;;;;;0.85;0.45;;;11.60;99.90;;;;;;5088847;28;20086;-81
2021/05/18 00:30:44;;;;;;;1.02;0.52;;;11.60;99.80;;;;;;5075403;28;20043;-81
2021/05/18 00:33:14;;;;;;;1.42;0.47;;;11.50;99.80;;;;;;5091159;28;20599;-81
2021/05/18 00:35:42;;;;;;;1.77;0.40;;;11.50;99.70;;;;;;5083269;28;20485;-81
2021/05/18 00:38:09;;;;;;;1.92;0.75;;;11.40;99.80;;;;;;5087313;28;20069;-81
2021/05/18 00:40:36;;;;;;;2.30;0.50;;;11.40;99.80;;;;;;5086944;28;20044;-80
2021/05/18 00:43:04;;;;;;;3.05;0.60;;;11.40;99.80;;;;;;5090245;28;20129;-81
2021/05/18 00:45:34;;;;;;;2.47;0.77;;;11.40;99.80;;;;;;5083314;28;20048;-81
2021/05/18 00:48:02;;;;;;;1.55;0.45;;;11.40;99.80;;;;;;5068259;28;20087;-80
2021/05/18 00:50:30;;;;;;;1.58;0.47;;;11.40;99.70;;;;;;5082317;28;20044;-81
2021/05/18 00:52:56;;;;;;;1.50;0.40;;;11.40;99.80;;;;;;5064717;28;20123;-81
2021/05/18 00:55:25;;;;;;;1.90;0.70;;;11.40;99.90;;;;;;5079096;28;20072;-81
2021/05/18 01:00:37;;;;;;;2.20;0.50;;;11.30;99.90;;;;;;5072742;28;20051;-81
2021/05/18 01:03:04;;;;;;;0.93;0.40;;;11.30;99.90;;;;;;5072953;28;20135;-81
2021/05/18 01:08:28;;;;;;;1.33;0.35;;;11.30;99.90;;;;;;4971567;28;20043;-80
2021/05/18 01:10:54;;;;;;;0.90;0.35;;;11.30;99.90;;;;;;5031375;28;20076;-80
2021/05/18 01:13:21;;;;;;;3.45;0.60;;;11.30;99.90;;;;;;5072504;28;20110;-80
2021/05/18 01:15:49;;;;;;;1.13;0.50;;;11.30;99.90;;;;;;5054686;28;20049;-80
2021/05/18 01:18:15;;;;;;;2.60;0.57;;;11.20;99.90;;;;;;5073806;28;20120;-81
2021/05/18 01:20:53;;;;;;;1.08;0.40;;;11.20;99.90;;;;;;5076772;28;20044;-81
2021/05/18 01:23:19;;;;;;;0.93;0.30;;;11.20;99.90;;;;;;5078244;28;20112;-81
2021/05/18 01:25:46;;;;;;;1.15;0.40;;;11.30;99.90;;;;;;5080663;28;20476;-81
2021/05/18 01:28:13;;;;;;;1.90;0.50;;;11.30;99.90;;;;;;5076820;28;20087;-81
2021/05/18 01:30:40;;;;;;;1.55;0.50;;;11.30;99.90;;;;;;5076502;28;20070;-81
2021/05/18 01:33:07;;;;;;;1.70;0.50;;;11.30;99.90;;;;;;5058811;28;20075;-80
2021/05/18 01:35:33;;;;;;;1.10;0.40;;;11.30;99.90;;;;;;5077170;28;20045;-80
2021/05/18 01:38:04;;;;;;;0.77;0.32;;;11.20;99.90;;;;;;5076855;28;20140;-81
2021/05/18 01:43:16;;;;;;;1.67;0.55;;;11.30;99.90;;;;;;5082178;28;20141;-80
2021/05/18 01:45:44;;;;;;;1.05;0.50;;;11.30;99.90;;;;;;5087299;28;20502;-81
2021/05/18 01:48:15;;;;;;;0.80;0.40;;;11.20;99.90;;;;;;5085591;28;20068;-80
2021/05/18 01:50:45;;;;;;;0.60;0.30;;;11.20;99.90;;;;;;5086810;28;20040;-80
2021/05/18 01:53:15;;;;;;;1.60;0.50;;;11.20;99.90;;;;;;5088144;28;20074;-81
2021/05/18 01:55:51;;;;;;;1.40;0.60;;;11.30;99.90;;;;;;5091496;28;20127;-81
2021/05/18 01:58:18;;;;;;;3.05;0.63;;;11.30;99.90;;;;;;5076871;28;20055;-80
2021/05/18 02:00:45;;;;;;;1.30;0.50;;;11.30;99.90;;;;;;5090989;28;20477;-81
2021/05/18 02:03:12;;;;;;;2.20;0.40;;;11.20;99.90;;;;;;5082084;28;20127;-80
2021/05/18 02:05:41;;;;;;;1.52;0.50;;;11.20;99.90;;;;;;5086134;28;20132;-81
2021/05/18 02:08:12;;;;;;;0.77;0.40;;;11.20;99.90;;;;;;5089925;28;20134;-80
2021/05/18 02:10:40;;;;;;;1.50;0.50;;;11.20;99.90;;;;;;5078940;28;20155;-81
2021/05/18 02:13:08;;;;;;;1.20;0.60;;;11.20;99.90;;;;;;5090266;28;20445;-80
2021/05/18 02:15:46;;;;;;;2.13;0.50;;;11.20;99.90;;;;;;5085420;28;20039;-80
2021/05/18 02:18:37;;;;;;;1.20;0.30;;;11.20;99.90;;;;;;5080950;28;20122;-81
2021/05/18 02:26:39;;;;;;;0.35;0.30;;;11.30;99.90;;;;;;5092235;28;20101;-78
2021/05/18 02:29:06;;;;;;;1.00;0.40;;;11.30;99.90;;;;;;5080541;28;20131;-78
2021/05/18 02:31:33;;;;;;;1.58;0.50;;;11.30;99.90;;;;;;5085942;28;20132;-77
2021/05/18 02:34:00;;;;;;;0.75;0.30;;;11.30;99.90;;;;;;5088500;28;20052;-78
2021/05/18 02:36:28;;;;;;;1.45;0.55;;;11.30;99.90;;;;;;5078994;28;20072;-80
2021/05/18 02:38:56;;;;;;;1.05;0.40;;;11.30;99.90;;;;;;5079330;28;20123;-78
2021/05/18 02:41:22;;;;;;;1.73;0.60;;;11.30;99.90;;;;;;5086764;28;20467;-78
2021/05/18 02:43:51;;;;;;;2.65;0.40;;;11.30;99.90;;;;;;5086439;28;20148;-78
2021/05/18 02:49:07;;;;;;;1.60;0.60;;;11.20;99.90;;;;;;5084956;28;20052;-78
2021/05/18 02:49:09;;;;;;;1.70;0.60;;;11.20;99.90;;;;;;5081184;28;20063;-78
2021/05/18 02:51:39;;;;;;;2.25;0.60;;;11.20;99.90;;;;;;5091573;28;20429;-78
2021/05/18 02:54:07;;;;;;;1.00;0.40;;;11.20;99.90;;;;;;5076223;28;20120;-78
2021/05/18 02:56:39;;;;;;;2.55;0.60;;;11.20;99.90;;;;;;5089896;28;20040;-78
2021/05/18 02:59:13;;;;;;;1.10;0.40;;;11.20;99.90;;;;;;5080331;28;20647;-78
2021/05/18 03:01:41;;;;;;;0.67;0.37;;;11.20;99.90;;;;;;5084489;28;20041;-78
2021/05/18 03:04:08;;;;;;;2.13;0.50;;;11.20;99.90;;;;;;5079035;28;20076;-78
2021/05/18 03:06:35;;;;;;;1.30;0.30;;;11.20;99.90;;;;;;5083639;28;20127;-79
2021/05/18 03:09:07;;;;;;;1.20;0.40;;;11.20;99.90;;;;;;5072524;28;20589;-78
2021/05/18 03:11:35;;;;;;;1.60;0.40;;;11.20;99.90;;;;;;5089237;28;20048;-78
2021/05/18 03:14:02;;;;;;;1.85;0.47;;;11.10;99.90;;;;;;5100325;28;20051;-78
2021/05/18 03:16:30;;;;;;;1.30;0.35;;;11.20;99.90;;;;;;5101005;28;20625;-78
2021/05/18 03:18:57;;;;;;;1.10;0.30;;;11.10;99.90;;;;;;5078905;28;20941;-78
2021/05/18 03:21:24;;;;;;;0.47;0.30;;;11.10;99.90;;;;;;5090606;28;20075;-78
2021/05/18 03:23:51;;;;;;;0.93;0.40;;;11.10;99.90;;;;;;5089714;28;20100;-79
2021/05/18 03:26:17;;;;;;;0.75;0.40;;;11.10;99.90;;;;;;5078996;28;20572;-78
2021/05/18 03:28:46;;;;;;;1.42;0.30;;;11.10;99.90;;;;;;5081455;28;20494;-78
2021/05/18 03:36:39;;;;;;;2.00;0.40;;;11.10;99.90;;;;;;5080987;28;20133;-77
2021/05/18 03:39:07;;;;;;;1.23;0.50;;;11.10;99.90;;;;;;5085794;28;20122;-77
2021/05/18 03:41:45;;;;;;;1.10;0.40;;;11.10;99.90;;;;;;5074244;28;20097;-77
2021/05/18 03:44:18;;;;;;;1.20;0.50;;;11.10;99.90;;;;;;5085504;28;20140;-77
2021/05/18 03:52:20;;;;;;;1.38;0.60;;;11.10;99.90;;;;;;5085090;28;20628;-77
2021/05/18 03:54:56;;;;;;;1.27;0.40;;;11.10;99.90;;;;;;5081113;28;20051;-77
2021/05/18 04:03:02;;;;;;;2.53;0.68;;;11.20;99.90;;;;;;5089329;28;20114;-77
2021/05/18 04:19:15;;;;;;;2.15;0.57;;;11.20;99.90;;;;;;5079910;28;19965;-77
2021/05/18 04:22:00;;;;;;;1.45;0.50;;;11.20;99.90;;;;;;5081132;28;20041;-78
2021/05/18 04:24:45;;;;;;;0.98;0.40;;;11.20;99.90;;;;;;5085288;28;20048;-82
2021/05/18 04:51:56;;;;;;;2.63;0.70;;;11.30;99.90;;;;;;5093396;28;20071;-81
2021/05/18 04:59:56;;;;;;;2.35;0.63;;;11.30;99.90;;;;;;5072136;28;20051;-81
2021/05/18 05:07:56;;;;;;;2.08;0.47;;;11.40;99.90;;;;;;5093415;28;20135;-81
2021/05/18 05:12:17;;;;;;;1.77;0.70;;;11.40;99.90;;;;;;5091723;28;20094;-81
2021/05/18 05:15:59;;;;;;;2.83;0.77;;;11.50;99.90;;;;;;5093216;28;20113;-81
2021/05/18 05:18:26;;;;;;;1.00;0.47;;;11.60;99.90;;;;;;5093379;28;20091;-81
2021/05/18 05:20:53;;;;;;;1.38;0.52;;;11.60;99.90;;;;;;5101851;28;20302;-81
2021/05/18 05:23:19;;;;;;;1.90;0.60;;;11.60;99.90;;;;;;5093257;28;20471;-81
2021/05/18 05:25:47;;;;;;;1.83;0.60;;;11.60;99.90;;;;;;5093172;28;20142;-81
2021/05/18 05:28:13;;;;;;;1.50;0.52;;;11.70;99.90;;;;;;5093176;28;20075;-81
2021/05/18 05:30:40;;;;;;;2.45;0.60;;;11.70;99.90;;;;;;5093321;28;20075;-81
2021/05/18 05:33:07;;;;;;;1.60;0.60;;;11.70;99.90;;;;;;5092812;28;20421;-80
2021/05/18 05:35:34;;;;;;;3.05;0.85;;;11.60;99.90;;;;;;5091784;28;20529;-81
2021/05/18 05:38:00;;;;;;;1.67;0.70;;;11.70;99.90;;;;;;5092936;28;20131;-81
2021/05/18 05:40:27;;;;;;;2.90;0.70;;;11.70;99.90;;;;;;5092968;28;20131;-81
2021/05/18 05:42:55;;;;;;;1.52;0.70;;;11.70;99.90;;;;;;5089839;28;20092;-81
2021/05/18 05:45:21;;;;;;;2.97;0.85;;;11.70;99.90;;;;;;5072878;28;20157;-81
2021/05/18 05:47:48;;;;;;;1.80;0.70;;;11.70;99.90;;;;;;5072420;28;20132;-81
2021/05/18 05:50:15;;;;;;;4.65;1.00;;;11.70;99.90;;;;;;5072439;28;20139;-81
2021/05/18 05:52:41;;;;;;;1.95;0.70;;;11.60;99.90;;;;;;5072756;28;20463;-82
2021/05/18 05:55:10;;;;;;;2.33;0.75;;;11.60;99.90;;;;;;5061854;28;20049;-82
2021/05/18 05:57:36;;;;;;;2.35;0.80;;;11.60;99.90;;;;;;5082330;28;20519;-81
2021/05/18 06:00:08;;;;;;;1.70;0.70;;;11.60;99.90;;;;;;5072608;28;20132;-82
2021/05/18 06:02:35;;;;;;;1.42;0.60;;;11.50;99.90;;;;;;5072411;28;20044;-82
2021/05/18 06:05:02;;;;;;;2.53;0.90;;;11.50;99.90;;;;;;5055744;28;20139;-82
2021/05/18 06:07:28;;;;;;;2.88;0.70;;;11.50;99.90;;;;;;5076147;28;20131;-81
2021/05/18 06:09:57;;;;;;;3.30;0.82;;;11.50;99.90;;;;;;5058325;28;20154;-81
2021/05/18 06:15:36;;;;;;;1.77;0.60;;;11.40;99.90;;;;;;5072277;28;20041;-81
2021/05/18 06:41:07;;;;;;;1.15;0.40;;;11.30;99.90;;;;;;5075787;28;20083;-80
2021/05/18 06:43:23;;;;;;;;;;;11.40;99.90;;;;;;5075720;28;20076;-81
2021/05/18 06:46:09;;;;;;;0.47;0.28;;;11.40;99.90;;;;;;5075747;28;20289;-81
2021/05/18 06:48:37;;;;;;;2.25;0.50;;;11.40;99.90;;;;;;5075627;28;20155;-81
2021/05/18 06:51:05;;;;;;;1.23;0.45;;;11.40;99.90;;;;;;5075311;28;20437;-81
2021/05/18 06:53:32;;;;;;;1.27;0.40;;;11.50;99.90;;;;;;5075261;28;20080;-81
2021/05/18 06:56:01;;;;;;;1.17;0.45;;;11.50;99.90;;;;;;5075609;28;20149;-81
2021/05/18 07:00:06;;;;;;;1.90;0.55;;;11.60;99.90;;;;;;5075401;28;20044;-81
2021/05/18 07:01:32;;;;;;;1.30;0.50;;;11.60;99.90;;;;;;5075434;28;20044;-81
2021/05/18 07:04:03;;;;;;;1.10;0.40;;;11.70;99.90;;;;;;5074960;28;20091;-81
2021/05/18 07:06:41;;;;;;;1.33;0.50;;;11.70;99.90;;;;;;5076439;28;20383;-81
2021/05/18 07:09:08;;;;;;;1.38;0.50;;;11.70;99.90;;;;;;5079517;28;20048;-82
2021/05/18 07:11:35;;;;;;;1.40;0.50;;;11.80;99.90;;;;;;5076249;28;20076;-82
2021/05/18 07:14:02;;;;;;;1.40;0.47;;;11.80;99.90;;;;;;5075151;28;20090;-81
2021/05/18 07:16:29;;;;;;;2.40;0.70;;;11.80;99.90;;;;;;5074573;28;20076;-82
2021/05/18 07:18:55;;;;;;;1.05;0.40;;;11.90;99.90;;;;;;5074824;28;20083;-82
2021/05/18 07:21:23;;;;;;;3.33;0.47;;;11.90;99.90;;;;;;5074895;28;20080;-82
2021/05/18 07:23:52;;;;;;;2.35;0.65;;;11.90;99.90;;;;;;5074488;28;20520;-82
2021/05/18 07:26:19;;;;;;;1.80;0.60;;;12.00;99.90;;;;;;5074864;28;20045;-81
2021/05/18 07:28:46;;;;;;;1.20;0.43;;;12.00;99.90;;;;;;5075017;28;20083;-81
2021/05/18 07:31:12;;;;;;;1.23;0.50;;;12.00;99.90;;;;;;5074614;28;20048;-81
2021/05/18 07:33:39;;;;;;;1.73;0.38;;;12.10;99.90;;;;;;5074780;28;20406;-81
2021/05/18 07:36:08;;;;;;;1.50;0.50;;;12.10;99.90;;;;;;5074821;28;20128;-84
2021/05/18 07:38:38;;;;;;;1.08;0.50;;;12.10;99.90;;;;;;5057008;28;20215;-82
2021/05/18 07:41:05;;;;;;;1.63;0.60;;;12.20;99.90;;;;;;5057045;28;20087;-82
2021/05/18 07:43:32;;;;;;;0.98;0.40;;;12.20;99.90;;;;;;5073872;28;20135;-83
2021/05/18 07:46:00;;;;;;;1.27;0.40;;;12.30;99.90;;;;;;5074421;28;20402;-82
2021/05/18 07:48:32;;;;;;;1.85;0.50;;;12.40;99.90;;;;;;5074263;28;20071;-82
2021/05/18 07:51:08;;;;;;;1.42;0.40;;;12.40;99.90;;;;;;5074481;28;20459;-82
2021/05/18 07:59:35;;;;;;;1.42;0.50;;;12.60;99.90;;;;;;5074460;28;20182;-82
2021/05/18 08:02:33;;;;;;;0.45;0.30;;;12.70;99.90;;;;;;5074357;28;20083;-83
2021/05/18 08:05:17;;;;;;;1.85;0.50;;;12.70;99.90;;;;;;5073406;28;20398;-82
2021/05/18 08:07:44;;;;;;;1.58;0.60;;;12.70;99.90;;;;;;5074086;28;20063;-83
2021/05/18 08:10:16;;;;;;;2.20;0.73;;;12.70;99.60;;;;;;5074293;28;20589;-81
2021/05/18 08:12:43;;;;;;;1.45;0.60;;;12.70;99.60;;;;;;5074110;28;20063;-82
2021/05/18 08:15:32;;;;;;;1.58;0.47;;;12.80;99.80;;;;;;5074143;28;20055;-81
2021/05/18 08:18:12;;;;;;;1.45;0.50;;;12.80;99.90;;;;;;5075363;28;20049;-81
2021/05/18 10:36:34;;;;;;;3.58;0.63;;;13.80;93.20;;;;;;5075375;28;20474;-82
2021/05/18 10:39:21;;;;;;;1.67;0.45;;;13.70;94.10;;;;;;5075828;28;20044;-82
2021/05/18 10:41:50;;;;;;;1.45;0.50;;;13.50;94.50;;;;;;5064792;28;20045;-83
2021/05/18 10:44:17;;;;;;;1.02;0.30;;;13.40;94.70;;;;;;5077392;28;20143;-83
2021/05/18 10:46:50;;;;;;;1.50;0.50;;;13.30;95.00;;;;;;5080671;28;20197;-83
2021/05/18 10:49:31;;;;;;;1.05;0.30;;;13.30;96.10;;;;;;5085594;28;20048;-83
2021/05/18 10:52:00;;;;;;;1.55;0.57;;;13.30;96.40;;;;;;5065405;28;20076;-82
2021/05/18 10:54:38;;;;;;;2.42;0.63;;;13.40;96.90;;;;;;5079959;28;20051;-83
2021/05/18 10:57:16;;;;;;;2.60;0.63;;;13.50;96.90;;;;;;5085425;28;20091;-82
2021/05/18 10:59:56;;;;;;;1.15;0.40;;;13.60;96.20;;;;;;5086754;28;20075;-82
2021/05/18 11:02:33;;;;;;;2.20;0.60;;;13.70;96.20;;;;;;5081608;28;20055;-82
2021/05/18 11:05:02;;;;;;;2.10;0.60;;;14.00;95.80;;;;;;5075840;28;20450;-82
2021/05/18 11:07:35;;;;;;;1.35;0.50;;;14.30;94.80;;;;;;5056341;28;20049;-83
2021/05/18 11:10:04;;;;;;;1.70;0.60;;;14.40;94.40;;;;;;5057514;28;20497;-82
2021/05/18 11:12:32;;;;;;;1.85;0.70;;;14.60;94.10;;;;;;5075024;28;20080;-83
2021/05/18 11:15:12;;;;;;;2.95;0.50;;;14.70;94.20;;;;;;5075423;28;20101;-82
2021/05/18 11:17:41;;;;;;;2.63;0.65;;;14.80;93.20;;;;;;5074943;28;20127;-82
2021/05/18 11:20:23;;;;;;;1.70;0.40;;;14.80;92.60;;;;;;5074762;28;20083;-82
2021/05/18 11:25:46;;;;;;;3.72;0.60;;;14.80;91.80;;;;;;5072794;28;20114;-83
2021/05/18 11:28:18;;;;;;;2.35;0.50;;;14.80;91.70;;;;;;5074816;28;20140;-83
2021/05/18 11:30:49;;;;;;;2.67;0.60;;;14.70;91.70;;;;;;5074590;28;20224;-82
2021/05/18 11:33:16;;;;;;;1.58;0.50;;;14.70;91.90;;;;;;5074675;28;20139;-82
2021/05/18 11:35:43;;;;;;;2.20;0.73;;;14.70;91.60;;;;;;5057118;28;20080;-82
2021/05/18 11:38:14;;;;;;;2.72;0.80;;;14.70;91.70;;;;;;5074873;28;20090;-82
2021/05/18 11:40:50;;;;;;;1.95;0.50;;;14.70;91.60;;;;;;5074891;28;20052;-83
2021/05/18 11:43:26;;;;;;;1.90;0.50;;;14.70;92.10;;;;;;5065321;28;20110;-82
2021/05/18 11:46:05;;;;;;;2.00;0.60;;;14.70;90.90;;;;;;5095157;28;20139;-83
2021/05/18 11:48:31;;;;;;;5.00;0.75;;;14.70;91.50;;;;;;5095037;28;20071;-82
2021/05/18 11:51:07;;;;;;;2.50;0.57;;;14.80;91.00;;;;;;5094613;28;20072;-82
2021/05/18 11:53:38;;;;;;;1.15;0.40;;;14.90;90.10;;;;;;5094862;28;20194;-82
2021/05/18 11:56:26;;;;;;;2.67;0.60;;;15.00;87.10;;;;;;5093700;28;20126;-83
2021/05/18 11:59:08;;;;;;;1.75;0.50;;;15.10;85.50;;;;;;5094966;28;20051;-83
2021/05/18 12:01:36;;;;;;;2.53;0.60;;;15.20;83.80;;;;;;5094562;28;20131;-82
2021/05/18 12:04:09;;;;;;;1.27;0.20;;;15.10;84.70;;;;;;5093660;28;20097;-83
2021/05/18 12:06:39;;;;;;;0.85;0.20;;;15.00;75.60;;;;;;5094218;28;20548;-84
2021/05/18 12:09:09;;;;;;;1.00;0.20;;;14.70;74.00;;;;;;5094305;28;20048;-83
2021/05/18 12:11:36;;;;;;;0.70;0.32;;;14.40;76.40;;;;;;5094369;28;20097;-83
2021/05/18 12:14:09;;;;;;;0.80;0.20;;;14.20;77.60;;;;;;5094723;28;20506;-83
2021/05/18 12:16:42;;;;;;;1.75;0.52;;;14.00;83.80;;;;;;5094829;28;20131;-83
2021/05/18 12:19:13;;;;;;;1.58;0.20;;;13.80;86.60;;;;;;5093574;28;20113;-83
2021/05/18 12:21:39;;;;;;;0.88;0.17;;;13.80;90.30;;;;;;5094715;28;20071;-83
2021/05/18 12:24:12;;;;;;;0.77;0.22;;;13.90;92.10;;;;;;5094509;28;20127;-83
2021/05/18 12:27:00;;;;;;;0.90;0.25;;;14.10;91.30;;;;;;5094407;28;20075;-83
2021/05/18 12:29:35;;;;;;;0.73;0.28;;;14.20;90.90;;;;;;5094087;28;20067;-83
2021/05/18 12:32:15;;;;;;;;;;;14.30;90.70;;;;;;5094714;28;20047;-83
2021/05/18 12:34:45;;;;;;;0.82;0.30;;;14.40;87.90;;;;;;5094012;28;19920;-84
2021/05/18 12:37:12;;;;;;;1.88;0.35;;;14.70;85.30;;;;;;5093986;28;20051;-83
2021/05/18 12:39:42;;;;;;;1.17;0.40;;;14.80;87.40;;;;;;5093794;28;20135;-83
2021/05/18 12:42:13;;;;;;;0.95;0.30;;;15.00;85.00;;;;;;5094148;28;20044;-83
2021/05/18 12:44:56;;;;;;;1.35;0.30;;;15.20;80.70;;;;;;5076074;28;20084;-83
2021/05/18 12:47:28;;;;;;;2.97;0.47;;;15.30;79.80;;;;;;5073639;28;20049;-84
2021/05/18 12:49:55;;;;;;;1.77;0.50;;;15.50;81.20;;;;;;5073693;28;20083;-84
2021/05/18 12:52:22;;;;;;;2.03;0.50;;;15.70;77.20;;;;;;5073444;28;20087;-83
2021/05/18 12:54:55;;;;;;;4.50;0.50;;;15.80;78.60;;;;;;5055904;28;20405;-83
2021/05/18 12:57:25;;;;;;;1.75;0.35;;;15.80;78.50;;;;;;5073836;28;20405;-83
2021/05/18 13:00:09;;;;;;;1.67;0.30;;;15.80;74.20;;;;;;5073630;28;20040;-83
2021/05/18 13:02:39;;;;;;;;;;;15.80;72.80;;;;;;5073792;28;20048;-83
2021/05/18 13:05:10;;;;;;;0.57;0.30;;;15.70;70.30;;;;;;5073534;28;20027;-83
2021/05/18 13:07:38;;;;;;;0.98;0.20;;;15.50;71.10;;;;;;5055333;28;20066;-83
2021/05/18 13:10:17;;;;;;;0.63;0.20;;;15.50;71.40;;;;;;5055616;28;20135;-83
2021/05/18 13:12:44;;;;;;;1.25;0.40;;;15.50;72.90;;;;;;5073309;28;20044;-82
2021/05/18 13:15:18;;;;;;;2.65;0.43;;;15.60;73.90;;;;;;5073169;28;20084;-84
2021/05/18 13:17:54;;;;;;;2.78;1.10;;;15.80;72.60;;;;;;5073493;28;20053;-81
2021/05/18 13:20:22;;;;;;;8.90;4.50;;;16.00;72.40;;;;;;5055393;28;20049;-82
2021/05/18 13:22:53;;;;;;;1.27;0.43;;;16.10;73.30;;;;;;5073177;28;20446;-82
2021/05/18 13:28:05;;;;;;;1.38;0.50;;;16.10;76.00;;;;;;5073500;28;20095;-83
2021/05/18 13:30:35;;;;;;;1.75;0.40;;;16.10;74.30;;;;;;5073028;28;20084;-81
2021/05/18 13:33:03;;;;;;;0.98;0.30;;;16.20;74.60;;;;;;5073425;28;20044;-82
2021/05/18 13:35:31;;;;;;;1.65;0.40;;;16.30;72.40;;;;;;5073415;28;20079;-82
2021/05/18 13:37:58;;;;;;;0.77;0.28;;;16.50;72.30;;;;;;5073541;28;20044;-82
2021/05/18 13:40:26;;;;;;;1.45;0.40;;;16.60;69.90;;;;;;5073945;28;20509;-82
2021/05/18 13:42:53;;;;;;;1.05;0.40;;;16.60;69.50;;;;;;5074085;28;20052;-83
2021/05/18 13:45:22;;;;;;;0.85;0.32;;;16.70;71.00;;;;;;5078908;28;20053;-82
2021/05/18 13:47:53;;;;;;;1.55;0.38;;;16.90;69.30;;;;;;5062943;28;20055;-82
2021/05/18 13:50:20;;;;;;;1.55;0.35;;;17.10;67.90;;;;;;5081660;28;20076;-86
2021/05/18 13:52:47;;;;;;;1.77;0.40;;;17.10;70.00;;;;;;5081777;28;20049;-82
2021/05/18 13:55:14;;;;;;;1.05;0.30;;;17.20;63.50;;;;;;5080938;28;20452;-81
2021/05/18 13:57:41;;;;;;;0.17;0.10;;;17.10;64.10;;;;;;5062645;28;20083;-82
2021/05/18 14:00:13;;;;;;;1.65;0.38;;;17.20;63.80;;;;;;5079893;28;20045;-83
2021/05/18 14:02:41;;;;;;;1.13;0.30;;;17.30;62.30;;;;;;5080314;28;20068;-82
2021/05/18 14:05:11;;;;;;;1.15;0.38;;;17.30;62.00;;;;;;5063117;28;20078;-82
2021/05/18 14:08:25;;;;;;;1.77;0.30;;;17.20;62.30;;;;;;5079777;28;20084;-82
2021/05/18 14:10:56;;;;;;;1.25;0.38;;;17.20;64.80;;;;;;5077819;28;20571;-83
2021/05/18 14:13:27;;;;;;;1.65;0.50;;;17.30;63.50;;;;;;5074382;28;20048;-81
2021/05/18 14:15:54;;;;;;;2.08;0.40;;;17.30;62.60;;;;;;5070963;28;20131;-81
2021/05/18 14:18:21;;;;;;;1.35;0.40;;;17.30;63.30;;;;;;5070546;28;20083;-81
2021/05/18 14:20:49;;;;;;;1.63;0.38;;;17.30;63.50;;;;;;5070337;28;20607;-82
2021/05/18 14:23:21;;;;;;;1.58;0.43;;;17.40;64.20;;;;;;5070810;28;20084;-82
2021/05/18 14:25:47;;;;;;;0.75;0.30;;;17.20;65.50;;;;;;5071009;28;20051;-82
2021/05/18 14:28:17;;;;;;;2.03;0.40;;;17.20;67.10;;;;;;5074203;28;20134;-81
2021/05/18 14:30:43;;;;;;;1.52;0.47;;;17.30;68.70;;;;;;5073907;28;20049;-81
2021/05/18 14:33:10;;;;;;;1.42;0.40;;;17.50;67.00;;;;;;5073855;28;20052;-81
2021/05/18 14:35:37;;;;;;;3.58;0.40;;;17.60;66.00;;;;;;5073716;28;20537;-81
2021/05/18 14:38:08;;;;;;;0.73;0.32;;;17.70;67.30;;;;;;5074230;28;20072;-82
2021/05/18 14:40:55;;;;;;;1.73;0.35;;;17.70;65.10;;;;;;5058850;28;20057;-81
2021/05/18 14:43:50;;;;;;;1.05;0.30;;;17.80;63.40;;;;;;5080573;28;20581;-81
2021/05/18 14:46:20;;;;;;;0.70;0.20;;;17.80;62.30;;;;;;5094050;28;20044;-82
2021/05/18 14:57:03;;;;;;;0.52;0.30;;;18.20;58.50;;;;;;5076792;28;20490;-80
2021/05/18 14:59:30;;;;;;;1.15;0.40;;;18.10;59.40;;;;;;5080806;28;20052;-81
2021/05/18 15:01:57;;;;;;;1.35;0.30;;;18.20;57.70;;;;;;5073793;28;20683;-80
2021/05/18 15:04:24;;;;;;;0.38;0.20;;;18.20;57.60;;;;;;5072871;28;20661;-80
2021/05/18 15:06:50;;;;;;;0.70;0.20;;;18.10;58.20;;;;;;5072606;28;20135;-81
2021/05/18 15:09:18;;;;;;;2.13;0.35;;;18.20;59.80;;;;;;5070995;28;20131;-81
2021/05/18 15:11:45;;;;;;;1.00;0.30;;;18.40;56.40;;;;;;5071846;28;20044;-81
2021/05/18 15:14:11;;;;;;;1.33;0.35;;;18.50;56.10;;;;;;5072347;28;20087;-80
2021/05/18 15:16:38;;;;;;;2.05;0.22;;;18.40;57.20;;;;;;5091959;28;20497;-81
2021/05/18 15:19:09;;;;;;;1.80;0.50;;;18.20;58.50;;;;;;5092332;28;20130;-80
2021/05/18 15:21:36;;;;;;;2.78;0.40;;;17.90;59.10;;;;;;5092109;28;20090;-80
2021/05/18 15:24:05;;;;;;;1.17;0.13;;;17.70;60.00;;;;;;5088769;28;20055;-79
2021/05/18 15:26:33;;;;;;;0.70;0.20;;;17.50;60.90;;;;;;5089716;28;20127;-79
2021/05/18 15:29:00;;;;;;;1.05;0.20;;;17.30;60.60;;;;;;5088782;28;20484;-79
2021/05/18 15:31:28;;;;;;;1.00;0.30;;;17.10;62.10;;;;;;5091920;28;20052;-79
2021/05/18 15:33:55;;;;;;;0.75;0.30;;;17.00;62.60;;;;;;5090769;28;20081;-80
2021/05/18 15:36:22;;;;;;;1.55;0.35;;;17.10;62.10;;;;;;5090976;28;20121;-79
2021/05/18 15:38:49;;;;;;;1.10;0.35;;;17.10;62.50;;;;;;5090841;28;20347;-79
2021/05/18 15:41:16;;;;;;;1.70;0.35;;;17.20;62.20;;;;;;5091774;28;20594;-79
2021/05/18 15:43:45;;;;;;;0.77;0.30;;;17.40;61.90;;;;;;5090656;28;20130;-80
2021/05/18 15:46:14;;;;;;;1.20;0.32;;;17.60;60.40;;;;;;5091002;28;20386;-80
2021/05/18 15:48:40;;;;;;;0.90;0.28;;;17.80;58.20;;;;;;5091264;28;20044;-80
2021/05/18 15:51:09;;;;;;;0.63;0.10;;;17.80;57.70;;;;;;5090781;28;20139;-79
2021/05/18 15:53:36;;;;;;;0.40;0.10;;;17.80;59.00;;;;;;5090418;28;20433;-79
2021/05/18 15:56:04;;;;;;;1.13;0.30;;;17.70;58.60;;;;;;5091328;28;20152;-80
2021/05/18 15:58:31;;;;;;;0.47;0.10;;;17.80;58.60;;;;;;5091434;28;20048;-80
2021/05/18 16:00:59;;;;;;;1.00;0.20;;;17.90;57.40;;;;;;5089923;28;20537;-80
2021/05/18 16:03:26;;;;;;;1.02;0.40;;;17.70;57.60;;;;;;5089736;28;20139;-80
2021/05/18 16:05:53;;;;;;;1.83;0.30;;;17.60;57.80;;;;;;5091416;28;20099;-79
2021/05/18 16:11:06;;;;;;;1.25;0.32;;;17.40;58.30;;;;;;5090967;28;20545;-85
2021/05/18 16:13:34;;;;;;;1.13;0.35;;;17.40;58.50;;;;;;5090508;28;20109;-79
2021/05/18 16:16:06;;;;;;;1.73;0.47;;;17.30;59.50;;;;;;5088784;28;20128;-80
2021/05/18 16:18:33;;;;;;;1.70;0.40;;;17.20;59.40;;;;;;5078072;28;20127;-80
2021/05/18 16:21:00;;;;;;;0.73;0.32;;;17.10;59.70;;;;;;5081584;28;20131;-80
2021/05/18 16:23:28;;;;;;;1.67;0.50;;;17.00;60.30;;;;;;5088417;28;20165;-79
2021/05/18 16:25:55;;;;;;;1.50;0.40;;;16.90;60.70;;;;;;5089409;28;20135;-83
2021/05/18 16:28:22;;;;;;;2.22;0.50;;;16.80;62.40;;;;;;5091052;28;20044;-81
2021/05/18 16:30:49;;;;;;;1.73;0.40;;;16.90;63.20;;;;;;5089642;28;20127;-79
2021/05/18 16:33:17;;;;;;;1.55;0.40;;;16.80;62.50;;;;;;5085237;28;20041;-79
2021/05/18 16:35:44;;;;;;;1.65;0.32;;;16.80;62.30;;;;;;5070504;28;20135;-79
2021/05/18 16:38:11;;;;;;;1.30;0.40;;;16.70;63.60;;;;;;5070439;28;20067;-79
2021/05/18 16:40:37;;;;;;;1.38;0.40;;;16.70;64.40;;;;;;5076707;28;20078;-80
2021/05/18 16:43:04;;;;;;;1.55;0.40;;;16.70;65.10;;;;;;5074377;28;20146;-79
2021/05/18 16:45:31;;;;;;;1.67;0.50;;;16.70;65.90;;;;;;5070508;28;20474;-80
2021/05/18 16:47:58;;;;;;;1.98;0.40;;;16.70;65.20;;;;;;5079705;28;20044;-80
2021/05/18 16:50:26;;;;;;;2.42;0.40;;;16.50;64.90;;;;;;5071099;28;20048;-80
2021/05/18 16:52:55;;;;;;;1.05;0.28;;;16.30;66.00;;;;;;5070385;28;20075;-79
2021/05/18 16:55:22;;;;;;;0.57;0.30;;;16.20;67.60;;;;;;5088305;28;20321;-79
2021/05/18 16:57:49;;;;;;;5.32;2.78;;;16.20;66.70;;;;;;5091671;28;20062;-80
2021/05/18 17:00:17;;;;;;;5.20;2.22;;;16.10;66.40;;;;;;5091185;28;20523;-82
2021/05/18 17:02:44;;;;;;;2.15;0.52;;;16.10;65.50;;;;;;5090033;28;20128;-82
2021/05/18 17:05:12;;;;;;;1.60;0.20;;;16.00;65.00;;;;;;5091057;28;20098;-81
2021/05/18 17:07:39;;;;;;;1.42;0.30;;;15.90;65.10;;;;;;5091118;28;20484;-81
2021/05/18 17:10:08;;;;;;;1.27;0.32;;;15.80;65.90;;;;;;5092111;28;20087;-81
2021/05/18 17:12:35;;;;;;;2.03;0.60;;;15.80;66.30;;;;;;5100265;28;20048;-81
2021/05/18 17:15:03;;;;;;;1.42;0.40;;;15.70;66.10;;;;;;5101181;28;20048;-79
2021/05/18 17:17:30;;;;;;;1.92;0.57;;;15.70;65.30;;;;;;5098903;28;20051;-79
2021/05/18 17:19:57;;;;;;;1.73;0.60;;;15.70;64.40;;;;;;5100429;28;20078;-79
2021/05/18 17:22:26;;;;;;;1.95;0.40;;;15.70;64.90;;;;;;5100342;28;20079;-80
2021/05/18 17:24:53;;;;;;;1.52;0.38;;;15.70;65.30;;;;;;5100229;28;20044;-79
2021/05/18 17:27:20;;;;;;;1.25;0.40;;;15.70;65.40;;;;;;5094630;28;20055;-79
2021/05/18 17:29:47;;;;;;;1.08;0.40;;;15.70;66.10;;;;;;5088956;28;20390;-80
2021/05/18 17:32:16;;;;;;;0.95;0.40;;;15.70;66.50;;;;;;5088553;28;20083;-81